Aviation Digital Data Service (ADDS)

Output produced by METARs form (2042 UTC 13 August 2020)
found at http://aviationweather.gov/metar/data/
 
METAR text: KRNT 131953Z 35005KT 10SM CLR 21/09 A3015 RMK AO2 SLP215 T02060089
Conditions at: KRNT (RENTON , WA, US) observed 1953 UTC 13 August 2020
Temperature: 20.6°C (69°F)
Dewpoint: 8.9°C (48°F) [RH = 47%]
Pressure (altimeter): 30.15 inches Hg (1021.1 mb)
[Sea-level pressure: 1021.5 mb]
Winds: from the N (350 degrees) at 6 MPH (5 knots; 2.6 m/s)
Visibility: 10 or more miles (16+ km)
Ceiling: at least 12,000 feet AGL
Clouds: sky clear below 12,000 feet AGL
Weather: no significant weather observed at this time

METAR text: KRNT 131853Z COR 36004KT 10SM CLR 19/09 A3016 RMK AO2 SLP216 T01890089
Conditions at: KRNT (RENTON , WA, US) observed 1853 UTC 13 August 2020
Temperature: 18.9°C (66°F)
Dewpoint: 8.9°C (48°F) [RH = 52%]
Pressure (altimeter): 30.16 inches Hg (1021.4 mb)
[Sea-level pressure: 1021.6 mb]
Winds: from the N (360 degrees) at 5 MPH (4 knots; 2.1 m/s)
Visibility: 10 or more miles (16+ km)
Ceiling: at least 12,000 feet AGL
Clouds: sky clear below 12,000 feet AGL
Weather: no significant weather observed at this time